sensor_id;sensor_type;location;lat;lon;timestamp;P1;durP1;ratioP1;P2;durP2;ratioP2
6953;SDS011;3516;47.980;8.808;2023-02-19T06:07:55;0.88;;;0.88;;
6953;SDS011;3516;47.980;8.808;2023-02-19T06:10:22;0.70;;;0.70;;
6953;SDS011;3516;47.980;8.808;2023-02-19T06:12:51;0.77;;;0.68;;
6953;SDS011;3516;47.980;8.808;2023-02-19T06:15:18;0.73;;;0.73;;
6953;SDS011;3516;47.980;8.808;2023-02-19T06:17:45;0.70;;;0.70;;
6953;SDS011;3516;47.980;8.808;2023-02-19T06:20:12;0.70;;;0.70;;
6953;SDS011;3516;47.980;8.808;2023-02-19T06:22:39;1.75;;;0.70;;
6953;SDS011;3516;47.980;8.808;2023-02-19T06:25:07;0.70;;;0.70;;
6953;SDS011;3516;47.980;8.808;2023-02-19T06:27:36;0.70;;;0.70;;
6953;SDS011;3516;47.980;8.808;2023-02-19T06:30:03;0.80;;;0.80;;
6953;SDS011;3516;47.980;8.808;2023-02-19T06:32:31;0.85;;;0.75;;
6953;SDS011;3516;47.980;8.808;2023-02-19T06:34:58;0.70;;;0.70;;
6953;SDS011;3516;47.980;8.808;2023-02-19T06:37:25;0.77;;;0.77;;
6953;SDS011;3516;47.980;8.808;2023-02-19T06:39:52;0.70;;;0.70;;
6953;SDS011;3516;47.980;8.808;2023-02-19T06:42:20;0.98;;;0.98;;
6953;SDS011;3516;47.980;8.808;2023-02-19T06:44:47;1.10;;;0.70;;
6953;SDS011;3516;47.980;8.808;2023-02-19T06:47:14;0.82;;;0.82;;
6953;SDS011;3516;47.980;8.808;2023-02-19T06:49:41;0.88;;;0.88;;
6953;SDS011;3516;47.980;8.808;2023-02-19T06:52:08;0.93;;;0.93;;
6953;SDS011;3516;47.980;8.808;2023-02-19T06:54:35;0.70;;;0.70;;
6953;SDS011;3516;47.980;8.808;2023-02-19T06:57:02;0.68;;;0.68;;
6953;SDS011;3516;47.980;8.808;2023-02-19T06:59:31;0.70;;;0.70;;
6953;SDS011;3516;47.980;8.808;2023-02-19T07:01:58;0.80;;;0.80;;
6953;SDS011;3516;47.980;8.808;2023-02-19T07:04:25;0.85;;;0.85;;
6953;SDS011;3516;47.980;8.808;2023-02-19T07:06:52;0.88;;;0.88;;
6953;SDS011;3516;47.980;8.808;2023-02-19T07:09:19;0.80;;;0.80;;
6953;SDS011;3516;47.980;8.808;2023-02-19T07:11:47;0.70;;;0.70;;
6953;SDS011;3516;47.980;8.808;2023-02-19T07:14:15;0.80;;;0.80;;
6953;SDS011;3516;47.980;8.808;2023-02-19T07:16:43;0.80;;;0.80;;
6953;SDS011;3516;47.980;8.808;2023-02-19T07:19:11;1.25;;;0.90;;
6953;SDS011;3516;47.980;8.808;2023-02-19T07:21:38;1.40;;;1.00;;
6953;SDS011;3516;47.980;8.808;2023-02-19T07:24:06;0.75;;;0.75;;
6953;SDS011;3516;47.980;8.808;2023-02-19T07:26:33;0.70;;;0.70;;
6953;SDS011;3516;47.980;8.808;2023-02-19T07:29:00;0.77;;;0.70;;
6953;SDS011;3516;47.980;8.808;2023-02-19T07:31:27;0.70;;;0.70;;
6953;SDS011;3516;47.980;8.808;2023-02-19T07:33:56;1.02;;;0.90;;
6953;SDS011;3516;47.980;8.808;2023-02-19T07:36:23;0.90;;;0.90;;
6953;SDS011;3516;47.980;8.808;2023-02-19T07:38:54;0.82;;;0.82;;
6953;SDS011;3516;47.980;8.808;2023-02-19T07:41:21;0.65;;;0.65;;
6953;SDS011;3516;47.980;8.808;2023-02-19T07:43:48;0.60;;;0.60;;
6953;SDS011;3516;47.980;8.808;2023-02-19T07:46:15;0.60;;;0.60;;
6953;SDS011;3516;47.980;8.808;2023-02-19T07:48:42;0.70;;;0.70;;
6953;SDS011;3516;47.980;8.808;2023-02-19T07:51:11;0.70;;;0.70;;
6953;SDS011;3516;47.980;8.808;2023-02-19T07:53:40;0.77;;;0.77;;
6953;SDS011;3516;47.980;8.808;2023-02-19T07:56:09;0.60;;;0.60;;
6953;SDS011;3516;47.980;8.808;2023-02-19T07:58:36;1.00;;;0.65;;
6953;SDS011;3516;47.980;8.808;2023-02-19T08:01:08;0.70;;;0.70;;
6953;SDS011;3516;47.980;8.808;2023-02-19T08:03:35;0.50;;;0.50;;
6953;SDS011;3516;47.980;8.808;2023-02-19T08:06:01;0.52;;;0.52;;
6953;SDS011;3516;47.980;8.808;2023-02-19T08:08:30;0.68;;;0.50;;
6953;SDS011;3516;47.980;8.808;2023-02-19T08:10:58;0.47;;;0.47;;
6953;SDS011;3516;47.980;8.808;2023-02-19T08:13:43;0.60;;;0.60;;
6953;SDS011;3516;47.980;8.808;2023-02-19T08:16:11;0.50;;;0.50;;
6953;SDS011;3516;47.980;8.808;2023-02-19T08:18:40;0.40;;;0.40;;
6953;SDS011;3516;47.980;8.808;2023-02-19T08:21:07;0.95;;;0.65;;
6953;SDS011;3516;47.980;8.808;2023-02-19T08:23:35;0.55;;;0.55;;
6953;SDS011;3516;47.980;8.808;2023-02-19T08:26:03;0.60;;;0.60;;
6953;SDS011;3516;47.980;8.808;2023-02-19T08:28:30;0.60;;;0.60;;
6953;SDS011;3516;47.980;8.808;2023-02-19T08:30:58;0.63;;;0.52;;
6953;SDS011;3516;47.980;8.808;2023-02-19T08:33:26;0.40;;;0.40;;
6953;SDS011;3516;47.980;8.808;2023-02-19T08:35:53;2.75;;;0.50;;
6953;SDS011;3516;47.980;8.808;2023-02-19T08:38:20;0.40;;;0.40;;
6953;SDS011;3516;47.980;8.808;2023-02-19T08:40:48;0.60;;;0.60;;
6953;SDS011;3516;47.980;8.808;2023-02-19T08:43:15;0.55;;;0.55;;
6953;SDS011;3516;47.980;8.808;2023-02-19T08:45:44;0.40;;;0.40;;
6953;SDS011;3516;47.980;8.808;2023-02-19T08:48:12;0.40;;;0.40;;
6953;SDS011;3516;47.980;8.808;2023-02-19T08:50:39;0.45;;;0.45;;
6953;SDS011;3516;47.980;8.808;2023-02-19T08:53:06;0.68;;;0.43;;
6953;SDS011;3516;47.980;8.808;2023-02-19T08:55:35;0.45;;;0.45;;
6953;SDS011;3516;47.980;8.808;2023-02-19T08:58:04;0.40;;;0.40;;
6953;SDS011;3516;47.980;8.808;2023-02-19T09:00:31;0.38;;;0.38;;
6953;SDS011;3516;47.980;8.808;2023-02-19T09:02:58;0.40;;;0.40;;
6953;SDS011;3516;47.980;8.808;2023-02-19T09:05:25;0.30;;;0.30;;
6953;SDS011;3516;47.980;8.808;2023-02-19T09:07:52;1.85;;;0.30;;
6953;SDS011;3516;47.980;8.808;2023-02-19T09:10:20;0.50;;;0.50;;
6953;SDS011;3516;47.980;8.808;2023-02-19T09:12:47;2.85;;;0.30;;
6953;SDS011;3516;47.980;8.808;2023-02-19T09:15:15;0.50;;;0.50;;
6953;SDS011;3516;47.980;8.808;2023-02-19T09:17:42;0.57;;;0.47;;
6953;SDS011;3516;47.980;8.808;2023-02-19T09:20:11;0.45;;;0.45;;
6953;SDS011;3516;47.980;8.808;2023-02-19T09:22:38;0.57;;;0.57;;
6953;SDS011;3516;47.980;8.808;2023-02-19T09:25:05;1.95;;;0.50;;
6953;SDS011;3516;47.980;8.808;2023-02-19T09:27:32;2.05;;;0.65;;
6953;SDS011;3516;47.980;8.808;2023-02-19T09:29:59;0.47;;;0.35;;
6953;SDS011;3516;47.980;8.808;2023-02-19T09:32:30;0.40;;;0.40;;
6953;SDS011;3516;47.980;8.808;2023-02-19T09:34:57;0.50;;;0.50;;
6953;SDS011;3516;47.980;8.808;2023-02-19T09:37:24;0.70;;;0.70;;
6953;SDS011;3516;47.980;8.808;2023-02-19T09:39:52;0.55;;;0.50;;
6953;SDS011;3516;47.980;8.808;2023-02-19T09:42:19;0.50;;;0.50;;
6953;SDS011;3516;47.980;8.808;2023-02-19T09:44:48;0.40;;;0.40;;
6953;SDS011;3516;47.980;8.808;2023-02-19T09:47:16;3.42;;;0.40;;
6953;SDS011;3516;47.980;8.808;2023-02-19T09:49:45;0.50;;;0.50;;
6953;SDS011;3516;47.980;8.808;2023-02-19T09:52:17;0.40;;;0.40;;
6953;SDS011;3516;47.980;8.808;2023-02-19T09:54:45;0.32;;;0.32;;
6953;SDS011;3516;47.980;8.808;2023-02-19T09:57:13;1.25;;;0.47;;
6953;SDS011;3516;47.980;8.808;2023-02-19T09:59:43;0.40;;;0.40;;
6953;SDS011;3516;47.980;8.808;2023-02-19T10:02:12;0.38;;;0.38;;
6953;SDS011;3516;47.980;8.808;2023-02-19T10:04:41;0.40;;;0.40;;
6953;SDS011;3516;47.980;8.808;2023-02-19T10:07:10;1.38;;;0.30;;
6953;SDS011;3516;47.980;8.808;2023-02-19T10:09:38;0.40;;;0.40;;
6953;SDS011;3516;47.980;8.808;2023-02-19T10:12:10;0.40;;;0.40;;
6953;SDS011;3516;47.980;8.808;2023-02-19T10:14:40;0.43;;;0.32;;
6953;SDS011;3516;47.980;8.808;2023-02-19T10:17:09;0.40;;;0.40;;
6953;SDS011;3516;47.980;8.808;2023-02-19T10:19:37;0.50;;;0.50;;
6953;SDS011;3516;47.980;8.808;2023-02-19T10:22:05;0.43;;;0.43;;
6953;SDS011;3516;47.980;8.808;2023-02-19T10:24:37;0.40;;;0.40;;
6953;SDS011;3516;47.980;8.808;2023-02-19T10:27:09;0.40;;;0.40;;
6953;SDS011;3516;47.980;8.808;2023-02-19T10:29:37;0.55;;;0.30;;
6953;SDS011;3516;47.980;8.808;2023-02-19T10:32:11;0.40;;;0.40;;
6953;SDS011;3516;47.980;8.808;2023-02-19T10:34:42;0.50;;;0.47;;
6953;SDS011;3516;47.980;8.808;2023-02-19T10:37:10;0.40;;;0.32;;
6953;SDS011;3516;47.980;8.808;2023-02-19T10:39:41;0.30;;;0.30;;
6953;SDS011;3516;47.980;8.808;2023-02-19T10:42:13;0.40;;;0.40;;
6953;SDS011;3516;47.980;8.808;2023-02-19T10:44:41;0.40;;;0.40;;
6953;SDS011;3516;47.980;8.808;2023-02-19T10:47:13;0.40;;;0.40;;
6953;SDS011;3516;47.980;8.808;2023-02-19T10:49:41;0.60;;;0.60;;
6953;SDS011;3516;47.980;8.808;2023-02-19T10:52:11;0.38;;;0.38;;
6953;SDS011;3516;47.980;8.808;2023-02-19T10:54:43;0.38;;;0.38;;
6953;SDS011;3516;47.980;8.808;2023-02-19T10:57:22;1.95;;;0.40;;
6953;SDS011;3516;47.980;8.808;2023-02-19T10:59:54;0.40;;;0.40;;
6953;SDS011;3516;47.980;8.808;2023-02-19T11:02:22;0.40;;;0.40;;
6953;SDS011;3516;47.980;8.808;2023-02-19T11:05:01;0.32;;;0.32;;
6953;SDS011;3516;47.980;8.808;2023-02-19T11:07:28;0.47;;;0.47;;
6953;SDS011;3516;47.980;8.808;2023-02-19T11:09:57;0.65;;;0.40;;
6953;SDS011;3516;47.980;8.808;2023-02-19T11:12:25;0.50;;;0.50;;
6953;SDS011;3516;47.980;8.808;2023-02-19T11:14:53;0.40;;;0.40;;
6953;SDS011;3516;47.980;8.808;2023-02-19T11:17:21;0.85;;;0.85;;
6953;SDS011;3516;47.980;8.808;2023-02-19T11:19:49;0.38;;;0.38;;
6953;SDS011;3516;47.980;8.808;2023-02-19T11:22:18;0.55;;;0.38;;
6953;SDS011;3516;47.980;8.808;2023-02-19T11:24:47;0.40;;;0.40;;
6953;SDS011;3516;47.980;8.808;2023-02-19T11:27:17;0.40;;;0.40;;
6953;SDS011;3516;47.980;8.808;2023-02-19T11:29:45;0.40;;;0.40;;
6953;SDS011;3516;47.980;8.808;2023-02-19T11:32:22;0.38;;;0.38;;
6953;SDS011;3516;47.980;8.808;2023-02-19T11:34:50;0.60;;;0.60;;
6953;SDS011;3516;47.980;8.808;2023-02-19T11:37:18;0.55;;;0.55;;
6953;SDS011;3516;47.980;8.808;2023-02-19T11:39:46;5.15;;;0.60;;
6953;SDS011;3516;47.980;8.808;2023-02-19T11:42:25;0.50;;;0.50;;
6953;SDS011;3516;47.980;8.808;2023-02-19T11:44:57;1.45;;;0.60;;
6953;SDS011;3516;47.980;8.808;2023-02-19T11:47:36;0.47;;;0.47;;
6953;SDS011;3516;47.980;8.808;2023-02-19T11:50:09;0.60;;;0.60;;
6953;SDS011;3516;47.980;8.808;2023-02-19T11:52:37;0.65;;;0.65;;
6953;SDS011;3516;47.980;8.808;2023-02-19T11:55:10;0.60;;;0.60;;
6953;SDS011;3516;47.980;8.808;2023-02-19T11:57:42;0.52;;;0.52;;
6953;SDS011;3516;47.980;8.808;2023-02-19T12:00:14;0.60;;;0.60;;
6953;SDS011;3516;47.980;8.808;2023-02-19T12:02:47;0.50;;;0.50;;
6953;SDS011;3516;47.980;8.808;2023-02-19T12:05:26;0.50;;;0.50;;
6953;SDS011;3516;47.980;8.808;2023-02-19T12:10:43;0.60;;;0.60;;
6953;SDS011;3516;47.980;8.808;2023-02-19T12:13:17;0.45;;;0.45;;
6953;SDS011;3516;47.980;8.808;2023-02-19T12:15:54;0.60;;;0.60;;
6953;SDS011;3516;47.980;8.808;2023-02-19T12:18:29;0.50;;;0.50;;
6953;SDS011;3516;47.980;8.808;2023-02-19T12:21:04;0.50;;;0.50;;
6953;SDS011;3516;47.980;8.808;2023-02-19T12:23:37;0.50;;;0.50;;
6953;SDS011;3516;47.980;8.808;2023-02-19T12:26:10;0.50;;;0.50;;
6953;SDS011;3516;47.980;8.808;2023-02-19T12:28:47;2.28;;;0.45;;
6953;SDS011;3516;47.980;8.808;2023-02-19T12:31:29;1.92;;;0.57;;
6953;SDS011;3516;47.980;8.808;2023-02-19T12:36:46;0.45;;;0.45;;
6953;SDS011;3516;47.980;8.808;2023-02-19T12:39:19;1.38;;;0.70;;
6953;SDS011;3516;47.980;8.808;2023-02-19T12:41:52;0.40;;;0.40;;
6953;SDS011;3516;47.980;8.808;2023-02-19T12:44:23;0.50;;;0.50;;
6953;SDS011;3516;47.980;8.808;2023-02-19T12:46:55;0.65;;;0.65;;
6953;SDS011;3516;47.980;8.808;2023-02-19T12:49:25;0.65;;;0.50;;
6953;SDS011;3516;47.980;8.808;2023-02-19T12:51:54;0.57;;;0.43;;
6953;SDS011;3516;47.980;8.808;2023-02-19T12:54:23;3.30;;;0.70;;
6953;SDS011;3516;47.980;8.808;2023-02-19T12:56:53;0.35;;;0.35;;
6953;SDS011;3516;47.980;8.808;2023-02-19T12:59:23;0.52;;;0.52;;
6953;SDS011;3516;47.980;8.808;2023-02-19T13:01:55;0.50;;;0.50;;
6953;SDS011;3516;47.980;8.808;2023-02-19T13:04:25;0.50;;;0.50;;
6953;SDS011;3516;47.980;8.808;2023-02-19T13:06:56;0.60;;;0.60;;
6953;SDS011;3516;47.980;8.808;2023-02-19T13:09:26;3.78;;;0.63;;
6953;SDS011;3516;47.980;8.808;2023-02-19T13:11:55;0.85;;;0.57;;
6953;SDS011;3516;47.980;8.808;2023-02-19T13:14:26;0.70;;;0.70;;
6953;SDS011;3516;47.980;8.808;2023-02-19T13:16:56;0.50;;;0.50;;
6953;SDS011;3516;47.980;8.808;2023-02-19T13:19:23;0.57;;;0.50;;
6953;SDS011;3516;47.980;8.808;2023-02-19T13:21:53;0.60;;;0.60;;
6953;SDS011;3516;47.980;8.808;2023-02-19T13:24:40;0.50;;;0.50;;
6953;SDS011;3516;47.980;8.808;2023-02-19T13:27:13;0.45;;;0.45;;
6953;SDS011;3516;47.980;8.808;2023-02-19T13:29:52;0.57;;;0.57;;
6953;SDS011;3516;47.980;8.808;2023-02-19T13:32:27;0.52;;;0.52;;
6953;SDS011;3516;47.980;8.808;2023-02-19T13:35:01;0.60;;;0.60;;
6953;SDS011;3516;47.980;8.808;2023-02-19T13:37:30;0.95;;;0.90;;
6953;SDS011;3516;47.980;8.808;2023-02-19T13:39:58;0.68;;;0.60;;
6953;SDS011;3516;47.980;8.808;2023-02-19T13:42:27;0.50;;;0.50;;
6953;SDS011;3516;47.980;8.808;2023-02-19T13:44:58;0.40;;;0.40;;
6953;SDS011;3516;47.980;8.808;2023-02-19T13:50:15;1.88;;;0.80;;
6953;SDS011;3516;47.980;8.808;2023-02-19T13:52:43;0.65;;;0.65;;
6953;SDS011;3516;47.980;8.808;2023-02-19T14:00:48;0.60;;;0.60;;
6953;SDS011;3516;47.980;8.808;2023-02-19T14:03:25;0.70;;;0.70;;
6953;SDS011;3516;47.980;8.808;2023-02-19T14:05:56;0.70;;;0.70;;
6953;SDS011;3516;47.980;8.808;2023-02-19T15:52:32;1.95;;;0.82;;
6953;SDS011;3516;47.980;8.808;2023-02-19T15:55:03;0.90;;;0.90;;
6953;SDS011;3516;47.980;8.808;2023-02-19T15:57:31;1.10;;;0.80;;
6953;SDS011;3516;47.980;8.808;2023-02-19T16:00:00;1.00;;;1.00;;
6953;SDS011;3516;47.980;8.808;2023-02-19T16:02:28;0.80;;;0.80;;
6953;SDS011;3516;47.980;8.808;2023-02-19T16:04:55;1.50;;;1.00;;
6953;SDS011;3516;47.980;8.808;2023-02-19T16:07:26;1.65;;;1.08;;
6953;SDS011;3516;47.980;8.808;2023-02-19T16:10:15;2.20;;;1.10;;
6953;SDS011;3516;47.980;8.808;2023-02-19T16:12:43;1.00;;;1.00;;
6953;SDS011;3516;47.980;8.808;2023-02-19T16:15:19;0.90;;;0.90;;
6953;SDS011;3516;47.980;8.808;2023-02-19T16:17:47;0.93;;;0.93;;
6953;SDS011;3516;47.980;8.808;2023-02-19T16:20:15;1.00;;;0.90;;
6953;SDS011;3516;47.980;8.808;2023-02-19T16:22:43;0.82;;;0.82;;
6953;SDS011;3516;47.980;8.808;2023-02-19T16:25:20;0.82;;;0.82;;
6953;SDS011;3516;47.980;8.808;2023-02-19T16:27:49;1.10;;;1.10;;
6953;SDS011;3516;47.980;8.808;2023-02-19T16:30:21;1.00;;;1.00;;
6953;SDS011;3516;47.980;8.808;2023-02-19T16:35:35;1.48;;;1.38;;
6953;SDS011;3516;47.980;8.808;2023-02-19T16:38:10;6.95;;;4.43;;
6953;SDS011;3516;47.980;8.808;2023-02-19T16:43:24;10.10;;;6.28;;
6953;SDS011;3516;47.980;8.808;2023-02-19T16:45:51;7.25;;;4.35;;
6953;SDS011;3516;47.980;8.808;2023-02-19T16:48:19;5.13;;;3.55;;
6953;SDS011;3516;47.980;8.808;2023-02-19T16:50:46;9.02;;;4.57;;
6953;SDS011;3516;47.980;8.808;2023-02-19T16:53:16;2.47;;;1.90;;
6953;SDS011;3516;47.980;8.808;2023-02-19T16:55:43;0.95;;;0.95;;
6953;SDS011;3516;47.980;8.808;2023-02-19T16:58:10;2.67;;;1.75;;
6953;SDS011;3516;47.980;8.808;2023-02-19T17:00:38;1.77;;;1.48;;
6953;SDS011;3516;47.980;8.808;2023-02-19T17:03:06;1.77;;;1.67;;
6953;SDS011;3516;47.980;8.808;2023-02-19T17:05:34;1.35;;;1.20;;
6953;SDS011;3516;47.980;8.808;2023-02-19T17:08:02;1.10;;;1.10;;
6953;SDS011;3516;47.980;8.808;2023-02-19T17:10:33;0.80;;;0.80;;
6953;SDS011;3516;47.980;8.808;2023-02-19T17:13:00;0.95;;;0.80;;
6953;SDS011;3516;47.980;8.808;2023-02-19T17:15:28;1.27;;;0.93;;
6953;SDS011;3516;47.980;8.808;2023-02-19T17:17:56;1.98;;;1.08;;
6953;SDS011;3516;47.980;8.808;2023-02-19T17:20:24;1.10;;;1.02;;
6953;SDS011;3516;47.980;8.808;2023-02-19T17:22:53;2.80;;;1.45;;
6953;SDS011;3516;47.980;8.808;2023-02-19T17:25:20;1.20;;;1.10;;
6953;SDS011;3516;47.980;8.808;2023-02-19T17:27:47;2.78;;;1.40;;
6953;SDS011;3516;47.980;8.808;2023-02-19T17:30:15;0.90;;;0.90;;
6953;SDS011;3516;47.980;8.808;2023-02-19T17:32:43;1.42;;;1.25;;
6953;SDS011;3516;47.980;8.808;2023-02-19T17:35:12;1.23;;;0.90;;
6953;SDS011;3516;47.980;8.808;2023-02-19T17:37:39;1.50;;;1.23;;
6953;SDS011;3516;47.980;8.808;2023-02-19T17:40:09;1.00;;;1.00;;
6953;SDS011;3516;47.980;8.808;2023-02-19T17:42:45;3.42;;;1.40;;
6953;SDS011;3516;47.980;8.808;2023-02-19T17:45:12;1.80;;;1.10;;
6953;SDS011;3516;47.980;8.808;2023-02-19T17:47:39;2.95;;;1.20;;
6953;SDS011;3516;47.980;8.808;2023-02-19T17:50:08;1.13;;;1.10;;
6953;SDS011;3516;47.980;8.808;2023-02-19T17:52:38;1.88;;;1.10;;
6953;SDS011;3516;47.980;8.808;2023-02-19T17:55:05;1.02;;;1.02;;
6953;SDS011;3516;47.980;8.808;2023-02-19T17:57:33;1.40;;;1.40;;
6953;SDS011;3516;47.980;8.808;2023-02-19T18:00:00;2.40;;;1.20;;
6953;SDS011;3516;47.980;8.808;2023-02-19T18:02:28;1.92;;;1.33;;
6953;SDS011;3516;47.980;8.808;2023-02-19T18:04:56;1.92;;;1.25;;
6953;SDS011;3516;47.980;8.808;2023-02-19T18:07:23;3.05;;;1.67;;
6953;SDS011;3516;47.980;8.808;2023-02-19T18:09:52;1.75;;;1.65;;
6953;SDS011;3516;47.980;8.808;2023-02-19T18:12:19;1.58;;;1.45;;
6953;SDS011;3516;47.980;8.808;2023-02-19T18:14:46;2.08;;;1.48;;
6953;SDS011;3516;47.980;8.808;2023-02-19T18:17:13;1.85;;;1.50;;
6953;SDS011;3516;47.980;8.808;2023-02-19T18:19:41;2.15;;;1.60;;
6953;SDS011;3516;47.980;8.808;2023-02-19T18:22:09;4.05;;;2.78;;
6953;SDS011;3516;47.980;8.808;2023-02-19T18:24:36;9.13;;;5.13;;
6953;SDS011;3516;47.980;8.808;2023-02-19T18:27:04;2.83;;;2.63;;
6953;SDS011;3516;47.980;8.808;2023-02-19T18:29:31;8.20;;;4.65;;
6953;SDS011;3516;47.980;8.808;2023-02-19T18:31:59;7.30;;;4.18;;
6953;SDS011;3516;47.980;8.808;2023-02-19T18:34:26;3.30;;;2.10;;
6953;SDS011;3516;47.980;8.808;2023-02-19T18:36:53;2.92;;;1.67;;
6953;SDS011;3516;47.980;8.808;2023-02-19T18:39:21;2.35;;;1.48;;
6953;SDS011;3516;47.980;8.808;2023-02-19T18:41:49;2.33;;;2.03;;
6953;SDS011;3516;47.980;8.808;2023-02-19T18:44:18;2.53;;;2.00;;
6953;SDS011;3516;47.980;8.808;2023-02-19T18:46:47;2.70;;;1.98;;
6953;SDS011;3516;47.980;8.808;2023-02-19T18:49:14;2.03;;;1.80;;
6953;SDS011;3516;47.980;8.808;2023-02-19T18:51:42;2.20;;;1.70;;
6953;SDS011;3516;47.980;8.808;2023-02-19T18:54:09;1.45;;;1.30;;
6953;SDS011;3516;47.980;8.808;2023-02-19T18:56:39;1.13;;;1.00;;
6953;SDS011;3516;47.980;8.808;2023-02-19T18:59:07;1.73;;;1.60;;
6953;SDS011;3516;47.980;8.808;2023-02-19T19:01:36;1.85;;;1.48;;
6953;SDS011;3516;47.980;8.808;2023-02-19T19:04:03;2.45;;;1.63;;
6953;SDS011;3516;47.980;8.808;2023-02-19T19:06:30;1.55;;;1.42;;
6953;SDS011;3516;47.980;8.808;2023-02-19T19:08:59;2.10;;;2.00;;
6953;SDS011;3516;47.980;8.808;2023-02-19T19:11:27;4.88;;;2.20;;
6953;SDS011;3516;47.980;8.808;2023-02-19T19:13:54;3.67;;;1.77;;
6953;SDS011;3516;47.980;8.808;2023-02-19T19:16:21;2.60;;;2.10;;
6953;SDS011;3516;47.980;8.808;2023-02-19T19:18:50;2.85;;;1.48;;
6953;SDS011;3516;47.980;8.808;2023-02-19T19:21:17;4.85;;;3.65;;
6953;SDS011;3516;47.980;8.808;2023-02-19T19:23:44;7.97;;;4.20;;
6953;SDS011;3516;47.980;8.808;2023-02-19T19:26:11;6.82;;;3.50;;
6953;SDS011;3516;47.980;8.808;2023-02-19T19:28:39;4.72;;;3.03;;
6953;SDS011;3516;47.980;8.808;2023-02-19T19:31:08;7.95;;;3.42;;
6953;SDS011;3516;47.980;8.808;2023-02-19T19:33:36;8.10;;;3.35;;
6953;SDS011;3516;47.980;8.808;2023-02-19T19:36:04;4.50;;;2.28;;
6953;SDS011;3516;47.980;8.808;2023-02-19T19:38:32;3.38;;;1.60;;
6953;SDS011;3516;47.980;8.808;2023-02-19T19:40:59;3.50;;;2.10;;
6953;SDS011;3516;47.980;8.808;2023-02-19T19:43:26;3.10;;;1.92;;
6953;SDS011;3516;47.980;8.808;2023-02-19T19:45:53;2.22;;;1.45;;
6953;SDS011;3516;47.980;8.808;2023-02-19T19:48:20;3.80;;;1.40;;
6953;SDS011;3516;47.980;8.808;2023-02-19T19:50:48;1.98;;;1.70;;
6953;SDS011;3516;47.980;8.808;2023-02-19T19:53:16;2.65;;;1.83;;
6953;SDS011;3516;47.980;8.808;2023-02-19T19:55:43;4.18;;;2.13;;
6953;SDS011;3516;47.980;8.808;2023-02-19T19:58:10;4.88;;;2.22;;
6953;SDS011;3516;47.980;8.808;2023-02-19T20:00:37;2.90;;;2.58;;
6953;SDS011;3516;47.980;8.808;2023-02-19T20:03:04;3.55;;;2.78;;
6953;SDS011;3516;47.980;8.808;2023-02-19T20:05:32;1.98;;;1.70;;
6953;SDS011;3516;47.980;8.808;2023-02-19T20:07:59;1.90;;;1.80;;
6953;SDS011;3516;47.980;8.808;2023-02-19T20:10:27;2.50;;;1.90;;
6953;SDS011;3516;47.980;8.808;2023-02-19T20:12:54;2.75;;;1.30;;
6953;SDS011;3516;47.980;8.808;2023-02-19T20:15:21;3.00;;;1.55;;
6953;SDS011;3516;47.980;8.808;2023-02-19T20:17:49;3.90;;;2.00;;
6953;SDS011;3516;47.980;8.808;2023-02-19T20:20:16;2.30;;;1.90;;
6953;SDS011;3516;47.980;8.808;2023-02-19T20:22:43;4.03;;;1.77;;
6953;SDS011;3516;47.980;8.808;2023-02-19T20:25:10;3.13;;;1.50;;
6953;SDS011;3516;47.980;8.808;2023-02-19T20:27:39;4.10;;;1.70;;
6953;SDS011;3516;47.980;8.808;2023-02-19T20:30:07;1.20;;;1.20;;
6953;SDS011;3516;47.980;8.808;2023-02-19T20:32:34;1.77;;;1.35;;
6953;SDS011;3516;47.980;8.808;2023-02-19T20:35:01;1.85;;;1.75;;
6953;SDS011;3516;47.980;8.808;2023-02-19T20:37:28;1.83;;;1.75;;
6953;SDS011;3516;47.980;8.808;2023-02-19T20:39:55;6.85;;;2.50;;
6953;SDS011;3516;47.980;8.808;2023-02-19T20:42:22;4.43;;;2.53;;
6953;SDS011;3516;47.980;8.808;2023-02-19T20:44:50;3.47;;;2.15;;
6953;SDS011;3516;47.980;8.808;2023-02-19T20:47:17;5.40;;;2.85;;
6953;SDS011;3516;47.980;8.808;2023-02-19T20:49:44;4.68;;;2.92;;
6953;SDS011;3516;47.980;8.808;2023-02-19T20:52:12;4.45;;;2.13;;
6953;SDS011;3516;47.980;8.808;2023-02-19T20:54:39;4.22;;;2.30;;
6953;SDS011;3516;47.980;8.808;2023-02-19T20:57:07;3.40;;;1.80;;
6953;SDS011;3516;47.980;8.808;2023-02-19T20:59:34;1.40;;;1.30;;
6953;SDS011;3516;47.980;8.808;2023-02-19T21:02:05;1.73;;;1.60;;
6953;SDS011;3516;47.980;8.808;2023-02-19T21:04:33;1.58;;;1.48;;
6953;SDS011;3516;47.980;8.808;2023-02-19T21:07:00;1.55;;;1.38;;
6953;SDS011;3516;47.980;8.808;2023-02-19T21:09:27;2.88;;;1.58;;
6953;SDS011;3516;47.980;8.808;2023-02-19T21:11:54;2.83;;;1.60;;
6953;SDS011;3516;47.980;8.808;2023-02-19T21:14:22;3.78;;;1.75;;
6953;SDS011;3516;47.980;8.808;2023-02-19T21:16:50;1.48;;;1.38;;
6953;SDS011;3516;47.980;8.808;2023-02-19T21:19:19;1.58;;;1.42;;
6953;SDS011;3516;47.980;8.808;2023-02-19T21:21:46;1.65;;;1.55;;
6953;SDS011;3516;47.980;8.808;2023-02-19T21:24:14;3.42;;;1.50;;
6953;SDS011;3516;47.980;8.808;2023-02-19T21:26:41;1.90;;;1.77;;
6953;SDS011;3516;47.980;8.808;2023-02-19T21:29:08;2.25;;;2.10;;
6953;SDS011;3516;47.980;8.808;2023-02-19T21:31:36;2.53;;;1.90;;
6953;SDS011;3516;47.980;8.808;2023-02-19T21:34:04;2.10;;;1.98;;
6953;SDS011;3516;47.980;8.808;2023-02-19T21:36:33;1.58;;;1.42;;
6953;SDS011;3516;47.980;8.808;2023-02-19T21:39:00;1.75;;;1.65;;
6953;SDS011;3516;47.980;8.808;2023-02-19T21:41:27;4.07;;;1.10;;
6953;SDS011;3516;47.980;8.808;2023-02-19T21:43:54;2.85;;;1.35;;
6953;SDS011;3516;47.980;8.808;2023-02-19T21:46:21;4.10;;;1.83;;
6953;SDS011;3516;47.980;8.808;2023-02-19T21:48:49;1.95;;;1.23;;
6953;SDS011;3516;47.980;8.808;2023-02-19T21:51:16;2.35;;;1.75;;
6953;SDS011;3516;47.980;8.808;2023-02-19T21:53:45;3.28;;;2.45;;
6953;SDS011;3516;47.980;8.808;2023-02-19T21:56:19;3.63;;;2.40;;
6953;SDS011;3516;47.980;8.808;2023-02-19T21:58:47;2.42;;;2.03;;
6953;SDS011;3516;47.980;8.808;2023-02-19T22:01:17;2.63;;;1.73;;
6953;SDS011;3516;47.980;8.808;2023-02-19T22:03:44;1.67;;;1.58;;
6953;SDS011;3516;47.980;8.808;2023-02-19T22:06:11;2.42;;;1.30;;
6953;SDS011;3516;47.980;8.808;2023-02-19T22:08:38;1.13;;;1.02;;
6953;SDS011;3516;47.980;8.808;2023-02-19T22:11:07;2.30;;;1.70;;
6953;SDS011;3516;47.980;8.808;2023-02-19T22:13:34;4.35;;;1.40;;
6953;SDS011;3516;47.980;8.808;2023-02-19T22:16:01;1.63;;;1.20;;
6953;SDS011;3516;47.980;8.808;2023-02-19T22:18:28;1.90;;;1.48;;
6953;SDS011;3516;47.980;8.808;2023-02-19T22:20:55;2.40;;;1.50;;
6953;SDS011;3516;47.980;8.808;2023-02-19T22:23:22;1.40;;;1.30;;
6953;SDS011;3516;47.980;8.808;2023-02-19T22:25:49;1.20;;;1.15;;
6953;SDS011;3516;47.980;8.808;2023-02-19T22:28:17;1.60;;;1.38;;
6953;SDS011;3516;47.980;8.808;2023-02-19T22:30:44;4.50;;;1.67;;
6953;SDS011;3516;47.980;8.808;2023-02-19T22:33:12;1.73;;;1.58;;
6953;SDS011;3516;47.980;8.808;2023-02-19T22:35:39;3.45;;;1.52;;
6953;SDS011;3516;47.980;8.808;2023-02-19T22:38:06;2.47;;;1.80;;
6953;SDS011;3516;47.980;8.808;2023-02-19T22:40:33;1.40;;;1.30;;
6953;SDS011;3516;47.980;8.808;2023-02-19T22:43:00;1.48;;;1.42;;
6953;SDS011;3516;47.980;8.808;2023-02-19T22:45:28;1.92;;;1.48;;
6953;SDS011;3516;47.980;8.808;2023-02-19T22:47:55;3.03;;;1.40;;
6953;SDS011;3516;47.980;8.808;2023-02-19T22:50:22;4.25;;;1.50;;
6953;SDS011;3516;47.980;8.808;2023-02-19T22:52:50;2.67;;;1.60;;
6953;SDS011;3516;47.980;8.808;2023-02-19T22:55:19;2.25;;;2.05;;
6953;SDS011;3516;47.980;8.808;2023-02-19T22:57:46;4.75;;;1.90;;
